createdAt,value
2023-03-11T00:01:07.704Z,4.84
2023-03-11T00:03:38.384Z,4.67
2023-03-11T00:06:09.657Z,4.56
2023-03-11T00:08:41.266Z,4.48
2023-03-11T00:11:11.930Z,4.38
2023-03-11T00:13:42.751Z,4.25
2023-03-11T00:16:13.437Z,4.09
2023-03-11T00:18:44.256Z,3.96
2023-03-11T00:21:20.268Z,3.87
2023-03-11T00:23:51.029Z,3.80
2023-03-11T00:26:22.153Z,3.75
2023-03-11T00:28:52.938Z,3.67
2023-03-11T00:31:26.460Z,3.72
2023-03-11T00:33:58.195Z,3.71
2023-03-11T00:36:33.667Z,3.68
2023-03-11T00:39:06.640Z,3.63
2023-03-11T00:41:36.057Z,3.52
2023-03-11T00:44:07.001Z,3.44
2023-03-11T00:46:37.707Z,3.37
2023-03-11T00:49:08.543Z,3.32
2023-03-11T00:51:39.211Z,3.27
2023-03-11T00:54:10.038Z,3.23
2023-03-11T00:56:41.701Z,3.21
2023-03-11T00:59:12.577Z,3.18
2023-03-11T01:01:43.427Z,3.14
2023-03-11T01:04:14.175Z,3.12
2023-03-11T01:06:45.928Z,3.11
2023-03-11T01:09:16.938Z,3.16
2023-03-11T01:11:47.827Z,3.18
2023-03-11T01:14:19.064Z,3.16
2023-03-11T01:16:49.830Z,3.12
2023-03-11T01:19:20.589Z,3.08
2023-03-11T01:21:51.254Z,3.05
2023-03-11T01:24:21.904Z,3.02
2023-03-11T01:26:52.638Z,3.04
2023-03-11T01:29:23.271Z,3.02
2023-03-11T01:31:54.067Z,3.00
2023-03-11T01:34:24.851Z,2.93
2023-03-11T01:36:55.554Z,2.87
2023-03-11T01:39:27.138Z,2.85
2023-03-11T01:41:57.900Z,2.82
2023-03-11T01:44:29.388Z,2.83
2023-03-11T01:47:31.135Z,2.87
2023-03-11T01:50:01.971Z,2.87
2023-03-11T01:52:33.277Z,2.83
2023-03-11T01:55:05.246Z,2.84
2023-03-11T01:57:37.645Z,2.82
2023-03-11T02:00:15.730Z,2.85
2023-03-11T02:02:51.317Z,2.84
2023-03-11T02:05:24.488Z,2.82
2023-03-11T02:07:56.828Z,2.77
2023-03-11T02:10:29.540Z,2.72
2023-03-11T02:13:01.085Z,2.70
2023-03-11T02:15:32.614Z,2.72
2023-03-11T02:18:06.239Z,2.71
2023-03-11T02:20:45.093Z,2.69
2023-03-11T02:23:17.746Z,2.66
2023-03-11T02:25:52.457Z,2.67
2023-03-11T02:28:25.091Z,2.62
2023-03-11T02:30:57.042Z,2.56
2023-03-11T02:33:32.150Z,2.51
2023-03-11T02:36:02.990Z,2.49
2023-03-11T02:38:33.649Z,2.49
2023-03-11T02:41:07.458Z,2.46
2023-03-11T02:43:42.981Z,2.43
2023-03-11T02:46:15.445Z,2.40
2023-03-11T02:48:47.009Z,2.38
2023-03-11T02:51:17.602Z,2.35
2023-03-11T02:53:51.967Z,2.33
2023-03-11T02:56:22.828Z,2.30
2023-03-11T02:58:53.690Z,2.32
2023-03-11T03:01:24.808Z,2.31
2023-03-11T03:03:55.536Z,2.29
2023-03-11T03:06:28.526Z,2.24
2023-03-11T03:08:59.701Z,2.22
2023-03-11T03:11:30.850Z,2.22
2023-03-11T03:14:01.793Z,2.22
2023-03-11T03:16:32.593Z,2.18
2023-03-11T03:19:03.388Z,2.16
2023-03-11T03:21:34.033Z,2.14
2023-03-11T03:24:05.526Z,2.12
2023-03-11T03:26:36.809Z,2.08
2023-03-11T03:29:08.668Z,2.04
2023-03-11T03:31:40.626Z,2.01
2023-03-11T03:34:11.835Z,1.96
2023-03-11T03:36:42.922Z,1.89
2023-03-11T03:39:13.725Z,1.94
2023-03-11T03:41:45.253Z,1.93
2023-03-11T03:44:16.210Z,1.90
2023-03-11T03:46:50.281Z,1.86
2023-03-11T03:49:21.171Z,1.89
2023-03-11T03:51:51.910Z,1.89
2023-03-11T03:54:34.924Z,1.90
2023-03-11T03:57:06.168Z,1.86
2023-03-11T03:59:39.651Z,1.85
2023-03-11T04:02:10.738Z,1.85
2023-03-11T04:04:41.792Z,1.85
2023-03-11T04:07:13.533Z,1.84
2023-03-11T04:09:45.231Z,1.83
2023-03-11T04:12:17.455Z,1.80
2023-03-11T04:14:48.767Z,1.75
2023-03-11T04:17:19.666Z,1.78
2023-03-11T04:19:50.639Z,1.77
2023-03-11T04:22:21.330Z,1.74
2023-03-11T04:24:52.247Z,1.72
2023-03-11T04:27:23.108Z,1.71
2023-03-11T04:29:54.005Z,1.66
2023-03-11T04:32:24.684Z,1.65
2023-03-11T04:34:55.500Z,1.64
2023-03-11T04:37:30.511Z,1.68
2023-03-11T04:40:01.583Z,1.70
2023-03-11T04:42:33.832Z,1.70
2023-03-11T04:45:05.517Z,1.66
2023-03-11T04:47:36.368Z,1.62
2023-03-11T04:50:08.653Z,1.63
2023-03-11T04:52:39.518Z,1.61
2023-03-11T04:55:13.880Z,1.58
2023-03-11T04:57:45.552Z,1.59
2023-03-11T05:00:22.872Z,1.58
2023-03-11T05:02:54.017Z,1.60
2023-03-11T05:05:25.722Z,1.57
2023-03-11T05:07:56.958Z,1.56
2023-03-11T05:10:29.220Z,1.55
2023-03-11T05:13:02.015Z,1.55
2023-03-11T05:15:36.569Z,1.57
2023-03-11T05:18:07.831Z,1.59
2023-03-11T05:20:40.088Z,1.66
2023-03-11T05:23:11.637Z,1.70
2023-03-11T05:25:43.262Z,1.64
2023-03-11T05:28:14.272Z,1.62
2023-03-11T05:30:49.925Z,1.62
2023-03-11T05:33:20.967Z,1.62
2023-03-11T05:35:52.656Z,1.62
2023-03-11T05:38:23.934Z,1.65
2023-03-11T05:40:54.646Z,1.67
2023-03-11T05:43:25.393Z,1.67
2023-03-11T05:45:58.082Z,1.66
2023-03-11T05:48:28.815Z,1.66
2023-03-11T05:51:00.465Z,1.69
2023-03-11T05:53:31.070Z,1.68
2023-03-11T05:56:02.309Z,1.65
2023-03-11T05:58:34.277Z,1.65
2023-03-11T06:01:11.328Z,1.67
2023-03-11T06:03:42.572Z,1.69
2023-03-11T06:06:15.583Z,1.75
2023-03-11T06:08:49.823Z,1.78
2023-03-11T06:11:20.929Z,1.81
2023-03-11T06:13:53.373Z,1.84
2023-03-11T06:16:24.787Z,1.83
2023-03-11T06:18:56.500Z,1.86
2023-03-11T06:21:27.737Z,1.85
2023-03-11T06:23:58.615Z,1.82
2023-03-11T06:26:30.156Z,1.82
2023-03-11T06:29:00.996Z,1.86
2023-03-11T06:31:32.232Z,1.90
2023-03-11T06:34:07.672Z,1.90
2023-03-11T06:36:38.755Z,1.85
2023-03-11T06:39:09.972Z,1.84
2023-03-11T06:41:41.081Z,1.84
2023-03-11T06:44:13.386Z,1.84
2023-03-11T06:46:44.376Z,1.83
2023-03-11T06:49:15.923Z,1.83
2023-03-11T06:51:46.902Z,1.82
2023-03-11T06:54:18.190Z,1.83
2023-03-11T06:56:49.065Z,1.88
2023-03-11T06:59:20.844Z,1.91
2023-03-11T07:01:52.822Z,1.93
2023-03-11T07:04:23.698Z,1.97
2023-03-11T07:06:54.678Z,2.01
2023-03-11T07:09:27.790Z,1.99
2023-03-11T07:11:58.730Z,1.98
2023-03-11T07:14:34.076Z,1.96
2023-03-11T07:17:04.784Z,1.96
2023-03-11T07:19:41.896Z,2.18
2023-03-11T07:22:15.502Z,2.76
2023-03-11T07:24:48.391Z,3.35
2023-03-11T07:27:19.798Z,3.68
2023-03-11T07:29:50.779Z,3.61
2023-03-11T07:32:21.451Z,3.36
2023-03-11T07:34:52.305Z,3.09
2023-03-11T07:37:23.247Z,2.98
2023-03-11T07:39:54.251Z,2.82
2023-03-11T07:42:24.905Z,2.66
2023-03-11T07:44:56.705Z,2.60
2023-03-11T07:47:27.358Z,2.53
2023-03-11T07:49:58.049Z,2.42
2023-03-11T07:52:30.590Z,2.37
2023-03-11T07:55:01.194Z,2.30
2023-03-11T07:57:31.885Z,2.26
2023-03-11T08:00:03.550Z,2.27
2023-03-11T08:02:54.547Z,2.26
2023-03-11T08:05:25.538Z,2.25
2023-03-11T08:07:56.155Z,2.25
2023-03-11T08:10:26.872Z,2.24
2023-03-11T08:12:57.555Z,2.23
2023-03-11T08:15:28.177Z,2.22
2023-03-11T08:17:58.860Z,2.22
2023-03-11T08:20:29.497Z,2.23
2023-03-11T08:23:00.258Z,2.27
2023-03-11T08:25:31.221Z,2.26
2023-03-11T08:28:01.835Z,2.30
2023-03-11T08:30:32.664Z,2.34
2023-03-11T08:33:03.441Z,2.40
2023-03-11T08:35:34.141Z,2.42
2023-03-11T08:38:05.148Z,2.41
2023-03-11T08:40:35.933Z,2.44
2023-03-11T08:43:06.806Z,2.49
2023-03-11T08:45:37.606Z,2.48
2023-03-11T08:48:10.614Z,2.49
2023-03-11T08:50:52.796Z,2.49
2023-03-11T08:53:24.664Z,2.49
2023-03-11T08:55:55.766Z,2.50
2023-03-11T08:58:26.589Z,2.52
2023-03-11T09:00:57.255Z,2.53
2023-03-11T09:03:29.489Z,2.58
2023-03-11T09:06:04.219Z,2.61
2023-03-11T09:08:35.136Z,2.62
2023-03-11T09:11:07.195Z,2.57
2023-03-11T09:13:40.991Z,2.55
2023-03-11T09:16:13.565Z,2.79
2023-03-11T09:18:44.424Z,3.43
2023-03-11T09:21:15.360Z,3.85
2023-03-11T09:23:46.168Z,3.75
2023-03-11T09:26:17.106Z,3.56
2023-03-11T09:28:49.454Z,3.39
2023-03-11T09:31:20.859Z,3.12
2023-03-11T09:33:52.902Z,2.97
2023-03-11T09:36:24.105Z,2.82
2023-03-11T09:38:54.875Z,2.72
2023-03-11T09:41:33.190Z,2.63
2023-03-11T09:44:17.915Z,2.56
2023-03-11T09:47:06.892Z,2.48
2023-03-11T09:49:48.253Z,2.47
2023-03-11T09:52:25.816Z,2.44
2023-03-11T09:54:59.452Z,2.41
2023-03-11T09:57:35.078Z,2.39
2023-03-11T10:00:08.499Z,2.36
2023-03-11T10:02:45.375Z,2.36
2023-03-11T10:05:21.970Z,2.37
2023-03-11T10:08:01.226Z,2.34
2023-03-11T10:10:34.694Z,2.36
2023-03-11T10:13:14.721Z,2.40
2023-03-11T10:15:56.830Z,2.43
2023-03-11T10:18:50.932Z,2.41
2023-03-11T10:21:33.097Z,2.43
2023-03-11T10:24:19.312Z,2.51
2023-03-11T10:26:53.812Z,2.64
2023-03-11T10:29:28.177Z,2.74
2023-03-11T10:32:06.380Z,2.80
2023-03-11T10:34:43.873Z,2.89
2023-03-11T10:37:19.830Z,2.97
2023-03-11T10:39:51.330Z,3.01
2023-03-11T10:42:26.091Z,3.07
2023-03-11T10:44:57.080Z,3.09
2023-03-11T10:47:28.034Z,3.09
2023-03-11T10:49:58.654Z,3.10
2023-03-11T10:52:29.362Z,3.16
2023-03-11T10:55:04.363Z,3.36
2023-03-11T10:57:38.772Z,4.00
2023-03-11T11:00:17.440Z,4.18
2023-03-11T11:02:58.060Z,4.07
2023-03-11T11:05:33.808Z,3.95
2023-03-11T11:08:11.991Z,3.87
2023-03-11T11:10:52.868Z,3.86
2023-03-11T11:13:25.129Z,3.84
2023-03-11T11:15:58.713Z,3.76
2023-03-11T11:18:33.188Z,3.69
2023-03-11T11:21:08.071Z,3.61
2023-03-11T11:23:42.743Z,3.52
2023-03-11T11:26:21.707Z,3.46
2023-03-11T11:29:09.359Z,3.43
2023-03-11T11:31:41.596Z,3.50
2023-03-11T11:34:31.170Z,3.54
2023-03-11T11:37:05.525Z,3.60
2023-03-11T11:39:51.502Z,3.68
2023-03-11T11:42:24.510Z,3.85
2023-03-11T11:44:59.472Z,4.00
2023-03-11T11:47:35.275Z,4.25
2023-03-11T11:50:12.550Z,4.57
2023-03-11T11:52:49.187Z,4.70
2023-03-11T11:55:25.061Z,4.72
2023-03-11T11:57:55.941Z,4.66
2023-03-11T12:00:35.714Z,4.60
2023-03-11T12:03:32.621Z,4.45
2023-03-11T12:06:07.200Z,4.24
2023-03-11T12:08:43.978Z,4.08
2023-03-11T12:11:19.344Z,3.95
2023-03-11T12:14:03.146Z,3.90
2023-03-11T12:16:44.286Z,3.86
2023-03-11T12:19:23.908Z,3.82
2023-03-11T12:22:17.166Z,3.75
2023-03-11T12:25:03.000Z,3.73
2023-03-11T12:27:37.943Z,3.71
2023-03-11T12:30:17.729Z,3.71
2023-03-11T12:32:53.029Z,3.67
2023-03-11T12:35:27.803Z,3.63
2023-03-11T12:38:16.926Z,3.62
2023-03-11T12:40:59.146Z,3.62
2023-03-11T12:43:44.630Z,3.59
2023-03-11T12:46:17.505Z,3.53
2023-03-11T12:48:50.414Z,3.52
2023-03-11T12:51:43.172Z,3.52
2023-03-11T12:54:32.385Z,3.50
2023-03-11T12:57:04.482Z,3.52
2023-03-11T13:00:12.610Z,3.56
2023-03-11T13:03:12.554Z,3.60
2023-03-11T13:05:56.398Z,3.52
2023-03-11T13:08:29.146Z,3.54
2023-03-11T13:11:00.823Z,3.57
2023-03-11T13:13:40.432Z,3.59
2023-03-11T13:16:40.718Z,3.64
2023-03-11T13:19:45.591Z,3.65
2023-03-11T13:22:44.075Z,3.69
2023-03-11T13:25:41.625Z,3.84
2023-03-11T13:28:35.812Z,4.07
2023-03-11T13:31:22.488Z,4.20
2023-03-11T13:33:55.470Z,4.26
2023-03-11T13:36:43.602Z,4.30
2023-03-11T13:39:40.017Z,4.43
2023-03-11T13:42:23.443Z,4.41
2023-03-11T13:44:57.537Z,4.29
2023-03-11T13:47:30.080Z,4.22
2023-03-11T13:50:06.985Z,4.10
2023-03-11T13:52:40.598Z,3.98
2023-03-11T13:55:20.076Z,3.84
2023-03-11T13:57:55.795Z,3.71
2023-03-11T14:00:28.594Z,3.63
2023-03-11T14:03:02.721Z,3.61
2023-03-11T14:05:37.725Z,3.57
2023-03-11T14:08:24.341Z,3.54
2023-03-11T14:11:17.254Z,3.52
2023-03-11T14:13:50.339Z,3.53
2023-03-11T14:16:26.539Z,3.53
2023-03-11T14:19:08.833Z,3.52
2023-03-11T14:21:45.417Z,3.56
2023-03-11T14:24:21.021Z,3.60
2023-03-11T14:26:55.875Z,3.60
2023-03-11T14:29:34.385Z,3.58
2023-03-11T14:32:26.126Z,3.59
2023-03-11T14:34:57.876Z,3.61
2023-03-11T14:37:34.528Z,3.59
2023-03-11T14:40:23.576Z,3.59
2023-03-11T14:42:55.618Z,3.61
2023-03-11T14:45:29.689Z,3.62
2023-03-11T14:48:05.237Z,3.59
2023-03-11T14:50:38.072Z,3.54
2023-03-11T14:53:16.827Z,3.52
2023-03-11T14:55:51.093Z,3.51
2023-03-11T14:58:29.320Z,3.50
2023-03-11T15:01:04.922Z,3.48
2023-03-11T15:03:39.566Z,3.48
2023-03-11T15:06:17.565Z,3.80
2023-03-11T15:08:54.577Z,3.85
2023-03-11T15:11:28.569Z,3.78
2023-03-11T15:14:21.053Z,3.67
2023-03-11T15:16:52.773Z,3.77
2023-03-11T15:19:34.534Z,3.80
2023-03-11T15:22:23.403Z,3.72
2023-03-11T15:24:55.425Z,3.67
2023-03-11T15:27:34.896Z,3.64
2023-03-11T15:30:19.349Z,3.58
2023-03-11T15:32:50.354Z,3.49
2023-03-11T15:35:23.406Z,3.43
2023-03-11T15:38:11.896Z,3.36
2023-03-11T15:40:52.197Z,3.32
2023-03-11T15:43:31.205Z,3.30
2023-03-11T15:46:03.861Z,3.33
2023-03-11T15:48:34.753Z,3.38
2023-03-11T15:51:05.755Z,3.36
2023-03-11T15:53:36.535Z,3.33
2023-03-11T15:56:17.214Z,3.30
2023-03-11T15:58:48.024Z,3.27
2023-03-11T16:01:23.718Z,3.22
2023-03-11T16:03:54.475Z,3.18
2023-03-11T16:06:25.731Z,3.14
2023-03-11T16:08:56.489Z,3.12
2023-03-11T16:11:32.073Z,3.08
2023-03-11T16:14:03.054Z,3.07
2023-03-11T16:16:34.266Z,3.07
2023-03-11T16:19:04.950Z,3.04
2023-03-11T16:21:40.831Z,3.02
2023-03-11T16:24:17.986Z,3.01
2023-03-11T16:26:49.302Z,2.99
2023-03-11T16:29:20.285Z,2.98
2023-03-11T16:31:51.351Z,2.98
2023-03-11T16:34:22.120Z,2.98
2023-03-11T16:36:52.913Z,3.01
2023-03-11T16:39:23.606Z,3.00
2023-03-11T16:41:54.325Z,2.96
2023-03-11T16:44:25.029Z,2.94
2023-03-11T16:46:55.943Z,2.93
2023-03-11T16:49:26.825Z,2.92
2023-03-11T16:51:57.541Z,2.90
2023-03-11T16:54:28.354Z,2.87
2023-03-11T16:56:59.131Z,2.84
2023-03-11T16:59:29.904Z,2.82
2023-03-11T17:02:00.646Z,2.82
2023-03-11T17:04:31.867Z,2.81
2023-03-11T17:07:02.703Z,2.81
2023-03-11T17:09:33.527Z,2.77
2023-03-11T17:12:05.142Z,2.72
2023-03-11T17:14:36.846Z,2.67
2023-03-11T17:17:08.178Z,2.63
2023-03-11T17:19:38.872Z,2.60
2023-03-11T17:22:09.696Z,2.57
2023-03-11T17:24:40.577Z,2.51
2023-03-11T17:27:11.480Z,2.46
2023-03-11T17:29:42.261Z,2.42
2023-03-11T17:32:17.312Z,2.37
2023-03-11T17:34:48.403Z,2.31
2023-03-11T17:37:19.528Z,2.28
2023-03-11T17:39:50.619Z,2.26
2023-03-11T17:42:21.358Z,2.23
2023-03-11T17:44:52.370Z,2.19
2023-03-11T17:47:26.005Z,2.13
2023-03-11T17:49:56.837Z,2.11
2023-03-11T17:52:27.650Z,2.12
2023-03-11T17:54:58.372Z,2.15
2023-03-11T17:57:29.260Z,2.16
2023-03-11T18:00:05.668Z,2.19
2023-03-11T18:02:36.269Z,2.20
2023-03-11T18:05:09.216Z,2.22
2023-03-11T18:07:40.819Z,2.21
2023-03-11T18:10:14.295Z,2.16
2023-03-11T18:12:48.389Z,2.10
2023-03-11T18:15:20.039Z,2.10
2023-03-11T18:17:51.276Z,2.10
2023-03-11T18:20:22.247Z,2.05
2023-03-11T18:22:53.193Z,1.98
2023-03-11T18:25:23.984Z,1.91
2023-03-11T18:27:54.688Z,1.87
2023-03-11T18:30:25.518Z,1.89
2023-03-11T18:32:56.331Z,1.90
2023-03-11T18:35:27.216Z,1.91
2023-03-11T18:37:57.941Z,1.92
2023-03-11T18:40:29.121Z,1.93
2023-03-11T18:42:59.914Z,1.92
2023-03-11T18:45:30.925Z,1.92
2023-03-11T18:48:03.997Z,1.92
2023-03-11T18:50:34.839Z,1.90
2023-03-11T18:53:05.933Z,1.89
2023-03-11T18:55:38.269Z,1.85
2023-03-11T18:58:09.725Z,1.83
2023-03-11T19:00:40.727Z,1.80
2023-03-11T19:03:13.174Z,1.77
2023-03-11T19:05:50.822Z,1.73
2023-03-11T19:08:21.617Z,1.72
2023-03-11T19:10:52.350Z,1.69
2023-03-11T19:13:23.655Z,1.66
2023-03-11T19:15:54.746Z,1.62
2023-03-11T19:18:26.162Z,1.59
2023-03-11T19:21:00.774Z,1.57
2023-03-11T19:23:31.783Z,1.56
2023-03-11T19:26:03.706Z,1.54
2023-03-11T19:28:34.551Z,1.52
2023-03-11T19:31:06.457Z,1.49
2023-03-11T19:33:37.290Z,1.47
2023-03-11T19:36:10.341Z,1.45
2023-03-11T19:38:41.010Z,1.43
2023-03-11T19:41:14.851Z,1.42
2023-03-11T19:43:46.064Z,1.42
2023-03-11T19:46:19.450Z,1.41
2023-03-11T19:48:50.853Z,1.43
2023-03-11T19:51:21.750Z,1.42
2023-03-11T19:53:52.464Z,1.38
2023-03-11T19:56:23.312Z,1.34
2023-03-11T19:58:54.209Z,1.30
2023-03-11T20:01:25.463Z,1.26
2023-03-11T20:03:56.358Z,1.21
2023-03-11T20:06:27.328Z,1.14
2023-03-11T20:09:01.628Z,1.08
2023-03-11T20:11:38.033Z,1.02
2023-03-11T20:14:09.552Z,0.96
2023-03-11T20:16:40.830Z,0.90
2023-03-11T20:19:11.980Z,0.92
2023-03-11T20:21:45.360Z,0.93
2023-03-11T20:24:17.028Z,0.94
2023-03-11T20:26:50.053Z,0.92
2023-03-11T20:29:22.516Z,0.89
2023-03-11T20:31:54.108Z,0.85
2023-03-11T20:34:25.385Z,0.83
2023-03-11T20:36:56.068Z,0.80
2023-03-11T20:39:26.975Z,0.77
2023-03-11T20:41:57.736Z,0.76
2023-03-11T20:44:28.681Z,0.72
2023-03-11T20:46:59.643Z,0.66
2023-03-11T20:49:30.541Z,0.61
2023-03-11T20:52:02.991Z,0.57
2023-03-11T20:54:33.838Z,0.56
2023-03-11T20:57:05.998Z,0.55
2023-03-11T20:59:37.084Z,0.55
2023-03-11T21:02:08.129Z,0.57
2023-03-11T21:04:41.162Z,0.57
2023-03-11T21:07:12.036Z,0.59
2023-03-11T21:09:42.914Z,0.60
2023-03-11T21:12:13.963Z,0.62
2023-03-11T21:14:44.834Z,0.64
2023-03-11T21:17:16.485Z,0.65
2023-03-11T21:19:48.004Z,0.65
2023-03-11T21:22:18.701Z,0.65
2023-03-11T21:24:54.047Z,0.62
2023-03-11T21:27:27.225Z,0.61
2023-03-11T21:29:57.222Z,0.62
2023-03-11T21:32:29.379Z,0.58
2023-03-11T21:35:01.004Z,0.51
2023-03-11T21:37:31.852Z,0.46
2023-03-11T21:40:02.726Z,0.42
2023-03-11T21:42:33.628Z,0.40
2023-03-11T21:45:04.929Z,0.40
2023-03-11T21:47:36.808Z,0.36
2023-03-11T21:50:09.288Z,0.31
2023-03-11T21:52:39.894Z,0.27
2023-03-11T21:55:11.878Z,0.24
2023-03-11T21:57:42.767Z,0.23
2023-03-11T22:00:16.131Z,0.24
2023-03-11T22:02:47.310Z,0.24
2023-03-11T22:05:18.940Z,0.25
2023-03-11T22:07:49.834Z,0.26
2023-03-11T22:10:21.821Z,0.26
2023-03-11T22:12:52.803Z,0.24
2023-03-11T22:15:23.741Z,0.22
2023-03-11T22:17:54.538Z,0.19
2023-03-11T22:20:25.239Z,0.16
2023-03-11T22:22:56.037Z,0.13
2023-03-11T22:25:26.689Z,0.12
2023-03-11T22:27:57.493Z,0.11
2023-03-11T22:30:28.786Z,0.10
2023-03-11T22:32:59.616Z,0.01
2023-03-11T22:35:30.551Z,0.10
2023-03-11T22:38:01.640Z,0.10
2023-03-11T22:40:32.690Z,0.06
2023-03-11T22:43:03.372Z,0.05
2023-03-11T22:45:34.693Z,0.02
2023-03-11T22:48:05.855Z,0.02
2023-03-11T22:50:36.638Z,0.02
2023-03-11T22:53:08.118Z,0.03
2023-03-11T22:55:45.083Z,0.04
2023-03-11T22:58:16.526Z,0.01
2023-03-11T23:00:47.556Z,-0.07
2023-03-11T23:03:23.475Z,-0.13
2023-03-11T23:05:59.286Z,-0.15
2023-03-11T23:08:33.386Z,-0.13
2023-03-11T23:11:07.943Z,-0.07
2023-03-11T23:13:39.714Z,-0.01
2023-03-11T23:16:13.654Z,0.03
2023-03-11T23:18:45.213Z,0.06
2023-03-11T23:21:21.280Z,0.06
2023-03-11T23:23:52.492Z,0.05
2023-03-11T23:26:26.550Z,0.08
2023-03-11T23:28:58.432Z,0.10
2023-03-11T23:31:31.734Z,0.13
2023-03-11T23:34:00.824Z,0.15
2023-03-11T23:36:32.245Z,0.18
2023-03-11T23:39:02.925Z,0.20
2023-03-11T23:41:33.842Z,0.21
2023-03-11T23:44:04.605Z,0.24
2023-03-11T23:46:35.392Z,0.22
2023-03-11T23:49:06.044Z,0.25
2023-03-11T23:51:36.883Z,0.29
2023-03-11T23:54:08.023Z,0.32
2023-03-11T23:56:38.827Z,0.30
2023-03-11T23:59:09.617Z,0.29
